Oaklawn, Kansas
Current Conditions -  °F | °C
As of 3:13 PM on Saturday 22 Nov 2014 (Local Time) from KIAB Reporting Station
Broken Clouds Broken Clouds  
Wind Chill: 61°   Ceiling: 1800
Heat Index: 61°   Visibility: 10mi
Dew Point: 61°   Wind: 17mph
Humidity: 100%   Direction: 170°S
Pressure: 29.75"   Gusts: 29mph
Location:  37.6055°N, 97.3205°W
Report Text: KIAB 222113Z AUTO 17015G25KT 10SM BKN018 16/16 A2975 RMK AO2 BKN V SCT
Loading
Personal Weather Stations






























Interactive Weather Map New forecast layout! Learn more

10-Day Weather Forecast

Advertisements
Track Severe Weather on mobile